Time;durP1;ratioP1;P1;durP2;ratioP2;P2;SDS_P1;SDS_P2;PMS_P1;PMS_P2;Temp;Humidity;BMP_temperature;BMP_pressure;BME280_temperature;BME280_humidity;BME280_pressure;Samples;Min_cycle;Max_cycle;Signal;HPM_P1;HPM_P2
2022/12/15 00:39:34;;;;;;;22.77;14.00;;;-1.10;99.90;;;;;;5074482;28;20170;-82
2022/12/15 00:42:00;;;;;;;22.23;14.33;;;-1.10;99.90;;;;;;5074259;28;20258;-82
2022/12/15 00:44:25;;;;;;;26.63;15.60;;;-1.00;99.90;;;;;;5074165;28;20182;-82
2022/12/15 00:46:54;;;;;;;27.43;15.50;;;-1.00;99.90;;;;;;5074307;28;20650;-84
2022/12/15 01:22:37;;;;;;;23.60;14.10;;;-0.80;99.90;;;;;;5073570;28;20202;-78
2022/12/15 01:25:05;;;;;;;26.70;14.43;;;-0.80;99.90;;;;;;5073211;28;20172;-81
2022/12/15 01:27:31;;;;;;;21.23;14.10;;;-0.80;99.90;;;;;;5073175;28;20234;-79
2022/12/15 01:29:56;;;;;;;24.83;14.97;;;-0.70;99.90;;;;;;5071814;28;20512;-78
2022/12/15 01:32:22;;;;;;;26.80;15.17;;;-0.70;99.90;;;;;;5073320;28;20184;-81
2022/12/15 01:34:48;;;;;;;25.00;15.40;;;-0.70;99.90;;;;;;5074018;28;20745;-81
2022/12/15 01:37:14;;;;;;;24.70;14.43;;;-0.80;99.90;;;;;;5073519;28;20508;-80
2022/12/15 01:42:25;;;;;;;21.93;13.77;;;-0.80;99.90;;;;;;5077264;28;20172;-82
2022/12/15 01:44:52;;;;;;;22.97;13.90;;;-0.80;99.90;;;;;;5073198;28;20538;-81
2022/12/15 01:47:23;;;;;;;22.73;14.10;;;-0.80;99.90;;;;;;5072940;28;20201;-82
2022/12/15 01:49:50;;;;;;;23.17;14.60;;;-0.70;99.90;;;;;;5072962;28;20181;-84
2022/12/15 01:52:16;;;;;;;26.60;15.30;;;-0.70;99.90;;;;;;5071693;28;20267;-80
2022/12/15 01:54:50;;;;;;;26.10;14.47;;;-0.70;99.90;;;;;;5072481;28;20178;-81
2022/12/15 01:57:24;;;;;;;25.07;15.47;;;-0.80;99.90;;;;;;5073007;28;20162;-85
2022/12/15 01:59:56;;;;;;;22.10;13.73;;;-0.80;99.90;;;;;;5071769;28;20190;-81
2022/12/15 02:02:27;;;;;;;26.47;14.10;;;-0.80;99.90;;;;;;5073179;28;20252;-81
2022/12/15 02:04:55;;;;;;;21.47;13.07;;;-0.70;99.90;;;;;;5074795;28;20612;-79
2022/12/15 02:07:22;;;;;;;23.90;13.67;;;-0.60;99.90;;;;;;5075973;28;20230;-81
2022/12/15 02:09:50;;;;;;;25.30;14.50;;;-0.60;99.90;;;;;;5088293;28;20170;-79
2022/12/15 02:12:40;;;;;;;24.00;14.80;;;-0.70;99.90;;;;;;5073276;28;20186;-81
2022/12/15 02:15:12;;;;;;;21.27;13.40;;;-0.70;99.90;;;;;;5078563;28;20513;-83
2022/12/15 02:18:11;;;;;;;25.07;13.87;;;-0.70;99.90;;;;;;5072854;28;20177;-81
2022/12/15 02:20:46;;;;;;;24.43;14.67;;;-0.70;99.90;;;;;;5072637;28;20161;-82
2022/12/15 02:23:36;;;;;;;24.03;14.63;;;-0.70;99.90;;;;;;5072728;28;20620;-83
2022/12/15 02:26:39;;;;;;;24.10;13.80;;;-0.70;99.90;;;;;;5071268;28;20253;-85
2022/12/15 02:29:45;;;;;;;21.70;14.13;;;-0.60;99.90;;;;;;5072519;28;20200;-80
2022/12/15 02:32:19;;;;;;;23.93;14.40;;;-0.60;99.90;;;;;;5072677;28;20162;-84
2022/12/15 02:34:53;;;;;;;22.13;14.07;;;-0.60;99.90;;;;;;5073001;28;20169;-80
2022/12/15 02:37:45;;;;;;;24.93;14.23;;;-0.60;99.90;;;;;;5076065;28;20256;-84
2022/12/15 02:40:11;;;;;;;22.90;13.70;;;-0.50;99.90;;;;;;5074989;28;20199;-85
2022/12/15 02:42:46;;;;;;;22.77;13.77;;;-0.40;99.90;;;;;;5079056;28;20174;-84
2022/12/15 02:45:15;;;;;;;23.83;14.10;;;-0.50;99.90;;;;;;5078572;28;20165;-82
2022/12/15 02:47:44;;;;;;;22.50;14.73;;;-0.50;99.90;;;;;;5073168;28;20203;-79
2022/12/15 02:50:26;;;;;;;22.43;14.07;;;-0.60;99.90;;;;;;5072218;28;20177;-82
2022/12/15 02:53:00;;;;;;;23.13;14.43;;;-0.60;99.90;;;;;;5072366;28;20649;-81
2022/12/15 02:55:51;;;;;;;25.93;14.10;;;-0.60;99.90;;;;;;5072335;28;20434;-83
2022/12/15 02:58:30;;;;;;;21.17;14.03;;;-0.50;99.90;;;;;;5072275;28;20168;-80
2022/12/15 03:01:15;;;;;;;25.73;14.30;;;-0.40;99.90;;;;;;5070953;28;20229;-77
2022/12/15 03:03:42;;;;;;;24.47;14.23;;;-0.30;99.90;;;;;;5072104;28;20511;-79
2022/12/15 03:06:08;;;;;;;23.40;14.90;;;-0.40;99.90;;;;;;5072794;28;20175;-79
2022/12/15 03:08:34;;;;;;;25.73;15.63;;;-0.40;99.90;;;;;;5075721;28;20207;-79
2022/12/15 03:11:01;;;;;;;24.80;15.70;;;-0.50;99.90;;;;;;5075967;28;20174;-81
2022/12/15 03:13:27;;;;;;;23.70;15.37;;;-0.50;99.90;;;;;;5076136;28;20741;-85
2022/12/15 03:15:53;;;;;;;25.33;15.37;;;-0.60;99.90;;;;;;5076456;28;20251;-84
2022/12/15 03:18:19;;;;;;;22.93;15.70;;;-0.60;99.90;;;;;;5079629;28;20202;-84
2022/12/15 03:20:45;;;;;;;28.70;16.17;;;-0.60;99.90;;;;;;5082397;28;20176;-83
2022/12/15 03:23:11;;;;;;;29.30;16.30;;;-0.60;99.90;;;;;;5075375;28;20193;-82
2022/12/15 03:25:37;;;;;;;26.50;15.90;;;-0.70;99.90;;;;;;5076104;28;20171;-83
2022/12/15 03:28:03;;;;;;;21.70;14.17;;;-0.70;99.90;;;;;;5080262;28;20251;-85
2022/12/15 03:30:28;;;;;;;26.63;15.23;;;-0.70;99.90;;;;;;5075872;28;20173;-83
2022/12/15 03:32:54;;;;;;;27.10;15.63;;;-0.70;99.90;;;;;;5075632;28;20218;-83
2022/12/15 03:35:20;;;;;;;25.47;15.93;;;-0.70;99.90;;;;;;5075544;28;20169;-78
2022/12/15 03:37:46;;;;;;;25.07;15.07;;;-0.70;99.90;;;;;;5077079;28;20175;-81
2022/12/15 03:40:15;;;;;;;23.77;15.63;;;-0.60;99.90;;;;;;5075950;28;20231;-84
2022/12/15 03:42:49;;;;;;;25.57;15.33;;;-0.60;99.90;;;;;;5075525;28;20240;-84
2022/12/15 03:45:20;;;;;;;27.30;15.97;;;-0.60;99.90;;;;;;5075578;28;20189;-82
2022/12/15 03:47:47;;;;;;;27.23;16.30;;;-0.70;99.90;;;;;;5075422;28;20216;-83
2022/12/15 03:50:15;;;;;;;31.50;16.70;;;-0.60;99.90;;;;;;5075283;28;20224;-85
2022/12/15 03:52:41;;;;;;;25.60;14.63;;;-0.50;99.90;;;;;;5073899;28;20237;-84
2022/12/15 03:55:08;;;;;;;24.83;15.73;;;-0.40;99.90;;;;;;5075210;28;20173;-82
2022/12/15 03:57:34;;;;;;;29.13;15.83;;;-0.40;99.90;;;;;;5075052;28;20502;-83
2022/12/15 04:00:00;;;;;;;27.30;15.97;;;-0.50;99.90;;;;;;5075080;28;20654;-82
2022/12/15 04:02:26;;;;;;;24.83;15.90;;;-0.50;99.90;;;;;;5075006;28;20251;-83
2022/12/15 04:04:51;;;;;;;25.63;16.37;;;-0.50;99.90;;;;;;5073641;28;20200;-82
2022/12/15 04:07:17;;;;;;;26.63;15.93;;;-0.40;99.90;;;;;;5074702;28;20273;-80
2022/12/15 04:09:43;;;;;;;25.67;16.13;;;-0.40;99.90;;;;;;5074991;28;20546;-78
2022/12/15 04:12:12;;;;;;;24.83;15.90;;;-0.40;99.90;;;;;;5077915;28;20640;-83
2022/12/15 04:14:41;;;;;;;26.90;16.40;;;-0.40;99.90;;;;;;5077183;28;20177;-84
2022/12/15 04:17:10;;;;;;;24.17;15.07;;;-0.40;99.90;;;;;;5076517;28;20174;-84
2022/12/15 04:22:20;;;;;;;27.87;15.33;;;-0.40;99.90;;;;;;5085027;28;20189;-84
2022/12/15 05:33:15;;;;;;;26.07;16.47;;;-0.80;99.90;;;;;;5073622;28;20162;-83
2022/12/15 05:35:41;;;;;;;23.77;15.00;;;-0.90;99.90;;;;;;5073637;28;20251;-83
2022/12/15 05:38:07;;;;;;;27.27;15.87;;;-0.90;99.90;;;;;;5073617;28;20161;-83
2022/12/15 05:40:33;;;;;;;29.87;15.70;;;-0.80;99.90;;;;;;5074016;28;20573;-83
2022/12/15 05:42:59;;;;;;;26.53;15.37;;;-0.90;99.90;;;;;;5075774;28;20189;-83
2022/12/15 05:45:26;;;;;;;29.13;16.80;;;-0.90;99.90;;;;;;5080829;28;20286;-83
2022/12/15 05:47:52;;;;;;;29.73;16.43;;;-0.90;99.90;;;;;;5075555;28;20256;-83
2022/12/15 05:50:19;;;;;;;27.33;15.50;;;-0.90;99.90;;;;;;5080332;28;20176;-83
2022/12/15 05:52:45;;;;;;;30.27;16.23;;;-0.90;99.90;;;;;;5075758;28;20177;-84
2022/12/15 05:55:11;;;;;;;26.40;15.10;;;-1.00;99.90;;;;;;5071657;28;20203;-84
2022/12/15 05:57:37;;;;;;;27.53;16.03;;;-1.00;99.90;;;;;;5073610;28;20181;-84
2022/12/15 06:00:04;;;;;;;24.90;16.10;;;-0.90;99.90;;;;;;5080070;28;20164;-82
2022/12/15 06:02:30;;;;;;;25.40;16.10;;;-1.00;99.90;;;;;;5073529;28;20173;-84
2022/12/15 06:04:56;;;;;;;28.27;16.13;;;-1.00;99.90;;;;;;5073776;28;20219;-83
2022/12/15 06:07:22;;;;;;;30.37;17.43;;;-1.00;99.90;;;;;;5072458;28;20312;-84
2022/12/15 06:09:48;;;;;;;29.60;15.83;;;-0.90;99.90;;;;;;5073586;28;20219;-84
2022/12/15 06:12:13;;;;;;;31.90;16.67;;;-1.00;99.90;;;;;;5073610;28;20172;-84
2022/12/15 06:14:39;;;;;;;30.97;17.30;;;-0.90;99.90;;;;;;5072707;28;20168;-83
2022/12/15 06:17:05;;;;;;;26.43;16.67;;;-1.00;99.90;;;;;;5072643;28;20654;-79
2022/12/15 06:19:31;;;;;;;30.70;16.83;;;-0.90;99.90;;;;;;5072643;28;20208;-81
2022/12/15 06:21:56;;;;;;;29.23;17.50;;;-0.90;99.90;;;;;;5072552;28;20179;-79
2022/12/15 06:24:23;;;;;;;31.47;17.63;;;-0.80;99.90;;;;;;5072551;28;20224;-82
2022/12/15 06:26:49;;;;;;;29.83;17.23;;;-0.90;99.90;;;;;;5072485;28;20211;-85
2022/12/15 06:29:15;;;;;;;49.63;25.27;;;-0.90;99.90;;;;;;5072772;28;20234;-82
2022/12/15 06:31:41;;;;;;;27.80;17.53;;;-1.00;99.90;;;;;;5073399;28;20179;-82
2022/12/15 06:34:11;;;;;;;32.80;18.93;;;-1.00;99.90;;;;;;5085131;28;20164;-81
2022/12/15 06:36:38;;;;;;;31.83;17.97;;;-1.00;99.90;;;;;;5079682;28;20219;-82
2022/12/15 06:39:09;;;;;;;31.97;18.30;;;-1.00;99.90;;;;;;5083227;28;20304;-81
2022/12/15 06:41:35;;;;;;;30.97;17.90;;;-1.00;99.90;;;;;;5082370;28;20162;-83
2022/12/15 06:44:02;;;;;;;31.63;19.07;;;-1.10;99.90;;;;;;5078449;28;20240;-81
2022/12/15 06:46:30;;;;;;;26.50;16.07;;;-1.10;99.90;;;;;;5078976;28;20168;-80
2022/12/15 06:48:56;;;;;;;25.43;15.53;;;-1.10;99.90;;;;;;5076579;28;20264;-82
2022/12/15 06:51:22;;;;;;;23.40;15.20;;;-1.10;99.90;;;;;;5076548;28;20181;-83
2022/12/15 06:53:49;;;;;;;25.33;16.63;;;-1.20;99.90;;;;;;5076476;28;20214;-84
2022/12/15 06:56:20;;;;;;;24.60;14.93;;;-1.20;99.90;;;;;;5076795;28;20169;-83
2022/12/15 06:58:51;;;;;;;27.80;16.00;;;-1.30;99.90;;;;;;5075580;28;20193;-83
2022/12/15 07:01:18;;;;;;;25.13;15.27;;;-1.30;99.90;;;;;;5075396;28;20282;-81
2022/12/15 07:03:44;;;;;;;27.47;15.10;;;-1.30;99.90;;;;;;5076534;28;20249;-82
2022/12/15 07:06:12;;;;;;;25.00;14.53;;;-1.30;99.90;;;;;;5076289;28;20693;-83
2022/12/15 07:08:38;;;;;;;21.73;14.57;;;-1.40;99.90;;;;;;5076347;28;20209;-80
2022/12/15 07:11:06;;;;;;;25.37;15.40;;;-1.50;99.90;;;;;;5076403;28;20638;-80
2022/12/15 07:13:32;;;;;;;24.30;14.50;;;-1.60;99.90;;;;;;5076131;28;20700;-79
2022/12/15 07:16:02;;;;;;;23.67;15.00;;;-1.40;99.90;;;;;;5076269;28;20171;-82
2022/12/15 07:18:29;;;;;;;25.80;14.60;;;-1.50;99.90;;;;;;5076251;28;20182;-82
2022/12/15 07:20:55;;;;;;;28.50;15.87;;;-1.30;99.90;;;;;;5075499;28;20179;-85
2022/12/15 07:23:21;;;;;;;25.53;15.50;;;-1.40;99.90;;;;;;5084256;28;20167;-82
2022/12/15 07:25:47;;;;;;;24.10;15.20;;;-1.20;99.90;;;;;;5076882;28;20175;-83
2022/12/15 07:28:13;;;;;;;22.17;14.93;;;-1.20;99.90;;;;;;5079026;28;20254;-84
2022/12/15 07:30:39;;;;;;;24.47;15.13;;;-1.20;99.90;;;;;;5083510;28;20171;-82
2022/12/15 07:33:05;;;;;;;25.00;14.90;;;-1.10;99.90;;;;;;5076519;28;20211;-84
2022/12/15 07:35:31;;;;;;;23.20;15.00;;;-1.00;99.90;;;;;;5076507;28;20250;-80
2022/12/15 07:37:57;;;;;;;23.90;14.70;;;-0.90;99.90;;;;;;5083917;28;20229;-82
2022/12/15 07:40:22;;;;;;;22.53;14.60;;;-0.90;99.90;;;;;;5078531;28;20214;-82
2022/12/15 07:42:48;;;;;;;24.70;14.37;;;-1.10;99.90;;;;;;5076411;28;20176;-81
2022/12/15 07:45:14;;;;;;;27.33;15.47;;;-1.10;99.90;;;;;;5078287;28;20184;-86
2022/12/15 07:47:40;;;;;;;21.33;14.77;;;-1.00;99.90;;;;;;5076343;28;20200;-85
2022/12/15 07:50:06;;;;;;;25.90;15.47;;;-0.90;99.90;;;;;;5075910;28;20642;-83
2022/12/15 07:52:33;;;;;;;24.17;14.80;;;-0.70;99.90;;;;;;5075210;28;20181;-83
2022/12/15 07:54:59;;;;;;;25.60;14.50;;;-0.50;99.90;;;;;;5077330;28;20249;-87
2022/12/15 07:57:24;;;;;;;27.87;15.47;;;-0.50;99.90;;;;;;5078500;28;20262;-86
2022/12/15 07:59:50;;;;;;;23.27;14.53;;;-0.60;99.90;;;;;;5077062;28;20168;-84
2022/12/15 08:02:17;;;;;;;25.33;15.73;;;-0.60;99.90;;;;;;5075461;28;20655;-80
2022/12/15 08:04:42;;;;;;;23.97;15.20;;;-0.50;99.90;;;;;;5075066;28;20163;-83
2022/12/15 08:07:09;;;;;;;26.40;15.73;;;-0.50;99.90;;;;;;5075255;28;20261;-80
2022/12/15 08:09:35;;;;;;;27.00;15.63;;;-0.50;99.90;;;;;;5076076;28;20213;-82
2022/12/15 08:12:01;;;;;;;28.27;15.53;;;-0.40;99.90;;;;;;5073790;28;20211;-80
2022/12/15 08:14:31;;;;;;;25.40;15.20;;;-0.30;99.90;;;;;;5073588;28;20204;-78
2022/12/15 08:16:56;;;;;;;23.57;15.13;;;-0.20;99.90;;;;;;5075923;28;20671;-78
2022/12/15 08:19:22;;;;;;;21.03;13.80;;;-0.20;99.90;;;;;;5076349;28;20174;-79
2022/12/15 08:21:48;;;;;;;24.17;14.90;;;-0.10;99.90;;;;;;5076507;28;20238;-79
2022/12/15 08:24:15;;;;;;;25.83;15.73;;;0.00;99.90;;;;;;5075027;28;20671;-79
2022/12/15 08:26:42;;;;;;;22.33;14.67;;;0.00;99.90;;;;;;5074847;28;20169;-81
2022/12/15 08:29:12;;;;;;;25.47;15.27;;;0.10;99.90;;;;;;5075095;28;20673;-81
2022/12/15 08:31:39;;;;;;;26.17;15.77;;;0.20;99.90;;;;;;5073825;28;20220;-79
2022/12/15 08:34:05;;;;;;;27.37;16.00;;;0.20;99.90;;;;;;5074841;28;20165;-79
2022/12/15 08:36:31;;;;;;;26.83;15.17;;;0.30;99.90;;;;;;5077250;28;20171;-83
2022/12/15 08:38:59;;;;;;;29.90;16.03;;;0.30;99.90;;;;;;5073594;28;20177;-83
2022/12/15 08:41:30;;;;;;;27.30;16.43;;;0.40;99.90;;;;;;5074693;28;20181;-80
2022/12/15 08:43:58;;;;;;;29.60;16.40;;;0.40;99.90;;;;;;5074694;28;20173;-83
2022/12/15 08:46:26;;;;;;;27.03;15.07;;;0.40;99.90;;;;;;5075246;28;20192;-83
2022/12/15 08:48:52;;;;;;;25.23;15.93;;;0.40;99.90;;;;;;5087491;28;20210;-83
2022/12/15 08:51:19;;;;;;;27.97;16.60;;;0.40;99.90;;;;;;5079978;28;20631;-84
2022/12/15 08:53:46;;;;;;;28.33;16.47;;;0.50;99.90;;;;;;5076999;28;20176;-84
2022/12/15 08:56:15;;;;;;;28.67;16.50;;;0.60;99.90;;;;;;5079609;28;20534;-83
2022/12/15 08:58:41;;;;;;;26.53;16.97;;;0.60;99.90;;;;;;5078898;28;20177;-82
2022/12/15 09:01:11;;;;;;;26.63;15.97;;;0.60;99.90;;;;;;5074612;28;20170;-83
2022/12/15 09:03:37;;;;;;;28.17;17.07;;;0.60;99.90;;;;;;5074609;28;20169;-83
2022/12/15 09:06:05;;;;;;;33.60;18.50;;;0.70;99.90;;;;;;5072736;28;20589;-83
2022/12/15 09:08:32;;;;;;;32.13;18.20;;;0.70;99.90;;;;;;5074527;28;20202;-84
2022/12/15 09:10:58;;;;;;;26.47;16.17;;;0.80;99.90;;;;;;5074324;28;20173;-85
2022/12/15 09:13:25;;;;;;;30.87;17.73;;;0.80;99.90;;;;;;5075079;28;20174;-84
2022/12/15 09:16:02;;;;;;;32.13;18.03;;;0.80;99.90;;;;;;5093647;28;20177;-84
2022/12/15 09:18:28;;;;;;;26.03;16.80;;;0.80;99.90;;;;;;5085849;28;20192;-83
2022/12/15 09:20:54;;;;;;;31.50;18.73;;;0.90;99.90;;;;;;5076653;28;20192;-86
2022/12/15 09:23:21;;;;;;;26.63;17.30;;;1.00;99.90;;;;;;5074367;28;20257;-85
2022/12/15 09:25:50;;;;;;;28.17;17.30;;;1.00;99.90;;;;;;5074584;28;20537;-85
2022/12/15 09:28:15;;;;;;;30.37;18.43;;;1.00;99.90;;;;;;5081265;28;20247;-87
2022/12/15 09:30:41;;;;;;;37.13;17.70;;;1.00;99.90;;;;;;5075929;28;20538;-84
2022/12/15 09:33:07;;;;;;;29.87;17.77;;;1.00;99.90;;;;;;5076534;28;20181;-84
2022/12/15 09:35:33;;;;;;;31.10;18.43;;;1.10;99.90;;;;;;5074207;28;20177;-84
2022/12/15 09:37:59;;;;;;;27.03;17.00;;;1.10;99.90;;;;;;5074197;28;20685;-86
2022/12/15 09:40:26;;;;;;;29.17;17.90;;;1.10;99.90;;;;;;5076166;28;20176;-84
2022/12/15 09:42:55;;;;;;;29.50;16.80;;;1.30;99.90;;;;;;5074365;28;20227;-83
2022/12/15 09:45:29;;;;;;;27.77;16.87;;;1.40;99.90;;;;;;5078859;28;20180;-84
2022/12/15 09:48:11;;;;;;;28.50;17.03;;;1.30;99.90;;;;;;5086865;28;20193;-83
2022/12/15 09:50:38;;;;;;;27.40;16.40;;;1.40;99.90;;;;;;5090007;28;20163;-84
2022/12/15 09:53:09;;;;;;;26.87;16.43;;;1.40;99.90;;;;;;5076567;28;20170;-84
2022/12/15 09:55:35;;;;;;;28.80;16.43;;;1.60;99.90;;;;;;5074002;28;20585;-83
2022/12/15 09:58:07;;;;;;;30.57;17.43;;;1.80;99.90;;;;;;5075074;28;20183;-81
2022/12/15 10:00:38;;;;;;;31.03;16.37;;;1.90;99.90;;;;;;5075532;28;20313;-78
2022/12/15 10:03:29;;;;;;;33.87;18.13;;;2.10;99.90;;;;;;5073261;28;20489;-78
2022/12/15 10:06:14;;;;;;;27.70;17.97;;;2.30;99.90;;;;;;5071605;28;20166;-79
2022/12/15 10:08:43;;;;;;;29.60;17.77;;;2.40;99.90;;;;;;5073233;28;20245;-78
2022/12/15 10:11:41;;;;;;;29.20;17.53;;;2.60;99.90;;;;;;5071459;28;20315;-80
2022/12/15 10:14:10;;;;;;;29.90;17.17;;;2.60;99.90;;;;;;5065953;28;20179;-81
2022/12/15 10:16:53;;;;;;;32.50;18.50;;;2.70;99.90;;;;;;5070973;28;20184;-78
2022/12/15 10:19:42;;;;;;;32.10;18.27;;;2.80;99.90;;;;;;5071444;28;20188;-80
2022/12/15 10:22:16;;;;;;;33.97;19.93;;;2.70;99.90;;;;;;5072725;28;20175;-80
2022/12/15 10:24:42;;;;;;;34.50;19.70;;;2.70;99.90;;;;;;5073123;28;20168;-82
2022/12/15 10:27:17;;;;;;;29.50;18.50;;;2.70;99.90;;;;;;5072825;28;20251;-81
2022/12/15 10:29:53;;;;;;;31.00;18.17;;;2.70;99.90;;;;;;5074715;28;20253;-81
2022/12/15 10:32:49;;;;;;;34.67;19.87;;;2.80;99.90;;;;;;5074244;28;20511;-81
2022/12/15 10:35:29;;;;;;;34.60;18.47;;;2.80;99.90;;;;;;5072911;28;20397;-83
2022/12/15 10:37:59;;;;;;;30.77;19.40;;;2.80;99.90;;;;;;5073634;28;20189;-83
2022/12/15 10:40:45;;;;;;;31.63;19.50;;;2.80;99.90;;;;;;5076659;28;20178;-83
2022/12/15 10:43:31;;;;;;;31.83;19.40;;;2.80;99.90;;;;;;5073696;28;20177;-83
2022/12/15 10:46:12;;;;;;;33.97;19.90;;;2.70;99.90;;;;;;5073051;28;20159;-82
2022/12/15 10:48:38;;;;;;;38.03;19.80;;;2.80;99.90;;;;;;5073693;28;20213;-82
2022/12/15 10:51:12;;;;;;;33.70;19.97;;;2.80;99.90;;;;;;5075263;28;20180;-83
2022/12/15 10:53:45;;;;;;;37.30;20.37;;;2.70;99.90;;;;;;5074268;28;20190;-79
2022/12/15 10:56:21;;;;;;;29.90;19.27;;;2.60;99.90;;;;;;5074520;28;20522;-80
2022/12/15 10:58:50;;;;;;;30.13;19.30;;;2.60;99.90;;;;;;5073885;28;20644;-80
2022/12/15 11:01:23;;;;;;;29.57;18.70;;;2.50;99.90;;;;;;5077220;28;20221;-79
2022/12/15 11:03:51;;;;;;;31.53;19.37;;;2.40;99.90;;;;;;5080947;28;20198;-80
2022/12/15 11:06:22;;;;;;;28.77;18.80;;;2.30;99.90;;;;;;5074979;28;20219;-81
2022/12/15 11:08:50;;;;;;;28.90;18.83;;;2.40;99.90;;;;;;5073557;28;20234;-86
2022/12/15 11:14:19;;;;;;;29.90;18.20;;;2.40;99.90;;;;;;5073293;28;20190;-84
2022/12/15 11:16:50;;;;;;;29.13;18.23;;;2.40;99.90;;;;;;5075676;28;20162;-84
2022/12/15 11:19:27;;;;;;;28.03;17.43;;;2.40;99.90;;;;;;5072290;28;20184;-82
2022/12/15 11:22:00;;;;;;;29.63;17.70;;;2.30;99.90;;;;;;5072614;28;20195;-85
2022/12/15 11:24:41;;;;;;;28.40;18.77;;;2.30;99.90;;;;;;5073048;28;20253;-85
2022/12/15 11:27:34;;;;;;;29.17;17.90;;;2.30;99.90;;;;;;5073695;28;20169;-86
2022/12/15 11:30:13;;;;;;;28.97;18.63;;;2.30;99.90;;;;;;5076104;28;20646;-85
2022/12/15 11:32:49;;;;;;;33.43;18.93;;;2.20;99.90;;;;;;5077167;28;20652;-84
2022/12/15 11:35:37;;;;;;;30.83;18.90;;;2.20;99.90;;;;;;5077872;28;20166;-85
2022/12/15 11:38:15;;;;;;;34.63;18.73;;;2.30;99.90;;;;;;5078646;28;20522;-83
2022/12/15 11:40:42;;;;;;;31.33;18.33;;;2.20;99.90;;;;;;5079222;28;20556;-85
2022/12/15 11:43:17;;;;;;;28.67;17.87;;;2.30;99.90;;;;;;5075903;28;20562;-83
2022/12/15 11:45:46;;;;;;;31.37;17.63;;;2.30;99.90;;;;;;5076358;28;20189;-83
2022/12/15 11:48:21;;;;;;;33.07;19.03;;;2.30;99.90;;;;;;5076768;28;20530;-83
2022/12/15 11:50:58;;;;;;;30.43;18.60;;;2.30;99.90;;;;;;5077718;28;20211;-80
2022/12/15 11:53:46;;;;;;;29.83;18.40;;;2.30;99.90;;;;;;5076708;28;20164;-78
2022/12/15 11:56:11;;;;;;;30.50;19.37;;;2.30;99.90;;;;;;5075527;28;20244;-82
2022/12/15 11:58:46;;;;;;;35.53;19.90;;;2.40;99.90;;;;;;5075239;28;20262;-81
2022/12/15 12:01:14;;;;;;;34.77;18.97;;;2.50;99.90;;;;;;5075358;28;20177;-79
2022/12/15 12:03:47;;;;;;;32.07;19.03;;;2.60;99.90;;;;;;5075573;28;20182;-77
2022/12/15 12:06:33;;;;;;;27.83;18.50;;;2.60;99.90;;;;;;5075736;28;20247;-80
2022/12/15 12:09:11;;;;;;;30.50;18.47;;;2.70;99.90;;;;;;5075610;28;20568;-80
2022/12/15 12:11:49;;;;;;;30.33;18.67;;;2.80;99.90;;;;;;5075600;28;20654;-80
2022/12/15 12:14:47;;;;;;;29.07;18.23;;;2.80;99.90;;;;;;5074379;28;20182;-78
2022/12/15 12:17:30;;;;;;;31.30;19.03;;;2.90;99.90;;;;;;5074252;28;20225;-82
2022/12/15 12:20:07;;;;;;;28.40;18.40;;;3.00;99.90;;;;;;5077003;28;20164;-84
2022/12/15 12:22:46;;;;;;;28.10;18.10;;;3.00;99.90;;;;;;5075118;28;20162;-84
2022/12/15 12:25:19;;;;;;;29.70;18.70;;;3.10;99.90;;;;;;5074065;28;20177;-82
2022/12/15 12:27:59;;;;;;;33.97;17.73;;;3.10;99.90;;;;;;5075369;28;20201;-82
2022/12/15 12:30:33;;;;;;;27.87;18.40;;;3.20;99.90;;;;;;5075959;28;20158;-86
2022/12/15 12:33:08;;;;;;;28.80;18.73;;;3.20;99.90;;;;;;5085498;28;20171;-84
2022/12/15 12:35:41;;;;;;;28.53;18.23;;;3.30;99.90;;;;;;5078517;28;20189;-81
2022/12/15 12:38:11;;;;;;;28.17;18.63;;;3.40;99.90;;;;;;5076065;28;20175;-84
2022/12/15 12:40:40;;;;;;;28.70;18.43;;;3.50;99.90;;;;;;5075518;28;20178;-83
2022/12/15 12:43:08;;;;;;;26.47;18.20;;;3.40;99.90;;;;;;5074363;28;20654;-82
2022/12/15 12:45:54;;;;;;;30.73;19.70;;;3.50;99.90;;;;;;5075895;28;20218;-84
2022/12/15 12:48:27;;;;;;;28.80;18.27;;;3.50;99.90;;;;;;5076025;28;20195;-85
2022/12/15 12:51:30;;;;;;;26.33;17.93;;;3.50;99.90;;;;;;5076355;28;20186;-84
2022/12/15 12:53:57;;;;;;;30.60;18.20;;;3.40;99.90;;;;;;5082270;28;20212;-84
2022/12/15 12:56:30;;;;;;;28.23;18.00;;;3.40;99.90;;;;;;5076489;28;20182;-83
2022/12/15 12:58:56;;;;;;;27.10;18.80;;;3.40;99.90;;;;;;5075018;28;20190;-85
2022/12/15 13:01:29;;;;;;;29.43;18.33;;;3.40;99.90;;;;;;5074924;28;20175;-85
2022/12/15 13:04:32;;;;;;;27.83;18.30;;;3.30;99.90;;;;;;5074674;28;20170;-84
2022/12/15 13:07:02;;;;;;;31.47;18.57;;;3.30;99.90;;;;;;5074723;28;20622;-85
2022/12/15 13:09:42;;;;;;;27.60;18.80;;;3.30;99.90;;;;;;5076108;28;20199;-84
2022/12/15 13:12:46;;;;;;;28.57;18.73;;;3.40;99.90;;;;;;5074383;28;20180;-85
2022/12/15 13:15:26;;;;;;;26.77;18.53;;;3.40;99.90;;;;;;5079010;28;20175;-81
2022/12/15 13:17:59;;;;;;;30.97;19.23;;;3.50;99.90;;;;;;5084578;28;20163;-80
2022/12/15 13:20:34;;;;;;;31.63;19.30;;;3.60;99.90;;;;;;5084563;28;20160;-85
2022/12/15 13:23:18;;;;;;;27.47;17.53;;;3.60;99.90;;;;;;5079271;28;20150;-84
2022/12/15 13:25:52;;;;;;;30.33;18.23;;;3.50;99.90;;;;;;5079683;28;20528;-82
2022/12/15 13:28:39;;;;;;;25.90;17.67;;;3.50;99.90;;;;;;5074373;28;20196;-84
2022/12/15 13:31:26;;;;;;;30.57;19.77;;;3.40;99.90;;;;;;5076173;28;20245;-84
2022/12/15 13:33:55;;;;;;;30.27;18.63;;;3.40;99.90;;;;;;5074155;28;20515;-85
2022/12/15 13:36:36;;;;;;;28.27;18.70;;;3.40;99.90;;;;;;5074037;28;20206;-84
2022/12/15 13:39:21;;;;;;;31.33;20.03;;;3.30;99.90;;;;;;5073628;28;20619;-81
2022/12/15 13:41:47;;;;;;;29.03;18.63;;;3.30;99.90;;;;;;5075929;28;20638;-83
2022/12/15 13:44:18;;;;;;;30.00;19.23;;;3.30;99.90;;;;;;5074870;28;20169;-76
2022/12/15 13:46:46;;;;;;;32.03;19.73;;;3.30;99.90;;;;;;5072611;28;20182;-85
2022/12/15 13:49:33;;;;;;;30.50;18.90;;;3.20;99.90;;;;;;5073608;28;20197;-79
2022/12/15 13:52:02;;;;;;;29.63;18.20;;;3.10;99.90;;;;;;5074317;28;20167;-81
2022/12/15 13:54:34;;;;;;;28.87;18.80;;;3.10;99.90;;;;;;5076285;28;20163;-84
2022/12/15 13:57:13;;;;;;;33.37;19.30;;;3.00;99.90;;;;;;5076221;28;20174;-82
2022/12/15 13:59:39;;;;;;;27.13;18.03;;;3.00;99.90;;;;;;5075752;28;20162;-83
2022/12/15 14:02:23;;;;;;;29.57;17.97;;;3.00;99.90;;;;;;5074309;28;20178;-81
2022/12/15 14:05:08;;;;;;;28.70;18.40;;;3.00;99.90;;;;;;5074426;28;20176;-79
2022/12/15 14:07:35;;;;;;;25.83;18.57;;;3.00;99.90;;;;;;5073415;28;20236;-79
2022/12/15 14:10:06;;;;;;;26.60;17.33;;;3.00;99.90;;;;;;5075279;28;20542;-79
2022/12/15 14:12:32;;;;;;;33.87;19.97;;;2.90;99.90;;;;;;5080188;28;20171;-80
2022/12/15 14:14:58;;;;;;;29.03;18.60;;;2.90;99.90;;;;;;5078906;28;20643;-79
2022/12/15 14:17:24;;;;;;;28.73;18.40;;;3.00;99.90;;;;;;5080459;28;20181;-79
2022/12/15 14:19:50;;;;;;;29.47;18.77;;;2.90;99.90;;;;;;5083301;28;20171;-84
2022/12/15 14:23:07;;;;;;;34.07;20.03;;;2.90;99.90;;;;;;5083819;28;20177;-83
2022/12/15 14:25:33;;;;;;;29.17;17.93;;;2.90;99.90;;;;;;5041375;28;20655;-85
2022/12/15 14:27:59;;;;;;;31.70;19.40;;;2.90;99.90;;;;;;5081936;28;20225;-84
2022/12/15 14:30:29;;;;;;;31.97;19.40;;;2.90;99.90;;;;;;5076592;28;20182;-83
2022/12/15 14:33:06;;;;;;;29.03;19.33;;;2.80;99.90;;;;;;5076185;28;20265;-82
2022/12/15 14:35:46;;;;;;;31.33;19.00;;;2.80;99.90;;;;;;5075719;28;20162;-83
2022/12/15 14:38:21;;;;;;;28.97;18.97;;;2.80;99.90;;;;;;5082660;28;20162;-84
2022/12/15 14:40:49;;;;;;;29.20;18.43;;;2.80;99.90;;;;;;5084868;28;20159;-82
2022/12/15 14:43:27;;;;;;;29.93;18.87;;;2.80;99.90;;;;;;5080647;28;20169;-84
2022/12/15 14:46:08;;;;;;;30.27;18.87;;;2.80;99.90;;;;;;5076719;28;20165;-84
2022/12/15 14:48:38;;;;;;;32.57;18.87;;;2.80;99.90;;;;;;5076823;28;20214;-85
2022/12/15 14:51:06;;;;;;;29.70;17.77;;;2.80;99.90;;;;;;5075096;28;20163;-85
2022/12/15 14:53:38;;;;;;;32.60;19.43;;;2.80;99.90;;;;;;5073580;28;20178;-86
2022/12/15 14:56:22;;;;;;;34.37;18.70;;;2.90;99.90;;;;;;5073276;28;20601;-84
2022/12/15 14:58:58;;;;;;;30.87;18.87;;;2.90;99.90;;;;;;5084902;28;20159;-84
2022/12/15 15:01:33;;;;;;;29.47;18.50;;;2.90;99.90;;;;;;5075330;28;20232;-85
2022/12/15 15:04:27;;;;;;;34.97;19.47;;;2.80;99.90;;;;;;5077425;28;20180;-84
2022/12/15 15:06:59;;;;;;;29.87;17.47;;;2.80;99.90;;;;;;5077207;28;20282;-84
2022/12/15 15:09:31;;;;;;;29.07;17.80;;;2.70;99.90;;;;;;5078338;28;20232;-84
2022/12/15 15:12:07;;;;;;;29.20;18.33;;;2.70;99.90;;;;;;5080576;28;20225;-86
2022/12/15 15:14:44;;;;;;;31.73;18.97;;;2.70;99.90;;;;;;5082393;28;20204;-79
2022/12/15 15:17:15;;;;;;;29.33;18.90;;;2.80;99.90;;;;;;5077400;28;20653;-84
2022/12/15 15:20:01;;;;;;;30.73;19.10;;;2.70;99.90;;;;;;5076849;28;20194;-84
2022/12/15 15:22:41;;;;;;;29.20;18.43;;;2.70;99.90;;;;;;5078633;28;20162;-81
2022/12/15 15:25:32;;;;;;;32.27;18.90;;;2.70;99.90;;;;;;5082618;28;20174;-79